< < Back
Terminal Aerodrome Forecast


Current Version              Previous Versions:   1  2  3  4  5  6  7  8  9  

Terminal Aerodrome Forecast

525
FTUS42 KCHS 301736
TAFCHS
TAF
KCHS 301736Z 3018/3118 09008KT P6SM -SHRA SCT020 BKN035
     FM302000 10007KT P6SM SCT040
     FM311500 09011KT P6SM VCSH OVC035=



Latest METAR

270
SAUS80 KWBC 310200
MTRCHS
METAR KCHS 310156Z 13003KT 10SM FEW200 26/22 A3000 RMK AO2 SLP159
T02610217


USA.gov is the U.S. government's official web portal to all federal, state and local government web resources and services.